Time;durP1;ratioP1;P1;durP2;ratioP2;P2;SDS_P1;SDS_P2;PMS_P1;PMS_P2;Temp;Humidity;BMP_temperature;BMP_pressure;BME280_temperature;BME280_humidity;BME280_pressure;Samples;Min_cycle;Max_cycle;Signal;HPM_P1;HPM_P2
2024/04/08 01:42:25;;;;;;;2.83;2.20;;;16.80;99.90;;;;;;4877872;29;20248;-75
2024/04/08 01:44:51;;;;;;;2.58;1.90;;;16.80;99.90;;;;;;4877791;29;20189;-73
2024/04/08 01:47:18;;;;;;;2.17;1.90;;;16.70;99.90;;;;;;4915446;29;20622;-75
2024/04/08 01:49:44;;;;;;;2.08;1.98;;;16.70;99.90;;;;;;4915313;29;20582;-74
2024/04/08 01:52:11;;;;;;;2.13;2.03;;;16.70;99.90;;;;;;4915352;29;20200;-75
2024/04/08 01:54:37;;;;;;;2.15;1.90;;;16.70;99.90;;;;;;4915295;29;20290;-75
2024/04/08 01:57:04;;;;;;;1.85;1.75;;;16.70;99.90;;;;;;4915133;29;20204;-74
2024/04/08 01:59:31;;;;;;;2.38;2.20;;;16.70;99.90;;;;;;4914671;29;20284;-75
2024/04/08 02:01:58;;;;;;;2.20;1.95;;;16.70;99.90;;;;;;4915148;29;20716;-74
2024/04/08 02:04:24;;;;;;;2.83;1.90;;;16.70;99.90;;;;;;4915100;29;20252;-74
2024/04/08 02:06:51;;;;;;;1.92;1.83;;;16.60;99.90;;;;;;4915038;29;20204;-74
2024/04/08 02:09:17;;;;;;;4.88;1.90;;;16.60;99.90;;;;;;4915019;29;20306;-74
2024/04/08 02:11:44;;;;;;;2.10;2.00;;;16.60;99.90;;;;;;4915283;29;20294;-75
2024/04/08 02:14:10;;;;;;;3.08;2.55;;;16.60;99.90;;;;;;4915139;29;20314;-74
2024/04/08 02:16:39;;;;;;;2.33;2.05;;;16.60;99.90;;;;;;4915279;29;20236;-75
2024/04/08 02:19:05;;;;;;;2.40;2.00;;;16.60;99.90;;;;;;4914885;29;20772;-75
2024/04/08 02:21:32;;;;;;;2.10;2.00;;;16.60;99.90;;;;;;4915005;29;20200;-74
2024/04/08 02:23:58;;;;;;;2.00;1.90;;;16.50;99.90;;;;;;4914962;29;20204;-75
2024/04/08 02:26:25;;;;;;;2.72;2.17;;;16.50;99.90;;;;;;4914969;29;20207;-75
2024/04/08 02:28:51;;;;;;;2.75;2.00;;;16.50;99.90;;;;;;4914759;29;20203;-75
2024/04/08 02:31:18;;;;;;;2.78;2.25;;;16.40;99.90;;;;;;4914813;29;20625;-75
2024/04/08 02:33:46;;;;;;;1.85;1.75;;;16.40;99.90;;;;;;4914899;29;20227;-75
2024/04/08 02:36:13;;;;;;;2.22;2.10;;;16.40;99.90;;;;;;4915007;29;20239;-74
2024/04/08 02:38:39;;;;;;;1.92;1.83;;;16.40;99.90;;;;;;4914861;29;20200;-75
2024/04/08 02:41:06;;;;;;;2.35;1.90;;;16.40;99.90;;;;;;4915078;29;20294;-75
2024/04/08 02:43:32;;;;;;;2.20;1.77;;;16.30;99.90;;;;;;4914814;29;20708;-74
2024/04/08 02:45:59;;;;;;;2.50;2.03;;;16.30;99.90;;;;;;4928777;28;20313;-74
2024/04/08 02:48:25;;;;;;;3.30;1.90;;;16.30;99.90;;;;;;4972196;28;20290;-74
2024/04/08 02:50:54;;;;;;;23.35;4.45;;;16.30;99.90;;;;;;4972088;28;20308;-75
2024/04/08 02:53:20;;;;;;;2.00;1.90;;;16.30;99.90;;;;;;4972110;28;20218;-74
2024/04/08 02:55:46;;;;;;;2.30;2.10;;;16.30;99.90;;;;;;4972165;28;20202;-75
2024/04/08 02:58:12;;;;;;;2.13;1.92;;;16.20;99.90;;;;;;4971916;28;20244;-76
2024/04/08 03:00:40;;;;;;;2.00;1.90;;;16.20;99.90;;;;;;4972019;28;20612;-75
2024/04/08 03:03:06;;;;;;;2.03;1.90;;;16.20;99.90;;;;;;4972052;28;20616;-75
2024/04/08 03:05:33;;;;;;;1.92;1.83;;;16.20;99.90;;;;;;4972223;28;20202;-75
2024/04/08 03:08:00;;;;;;;1.90;1.80;;;16.20;99.90;;;;;;4972055;28;20209;-76
2024/04/08 03:10:27;;;;;;;2.20;2.00;;;16.20;99.90;;;;;;4973513;28;20222;-75
2024/04/08 03:12:53;;;;;;;2.40;2.28;;;16.20;99.90;;;;;;4975521;28;20290;-75
2024/04/08 03:15:20;;;;;;;2.10;2.00;;;16.20;99.90;;;;;;4975579;28;20210;-75
2024/04/08 03:17:47;;;;;;;2.40;2.20;;;16.20;99.90;;;;;;4975611;28;20568;-75
2024/04/08 03:20:13;;;;;;;2.75;2.20;;;16.10;99.90;;;;;;4975690;28;20213;-76
2024/04/08 03:22:39;;;;;;;2.30;2.10;;;16.10;99.90;;;;;;4975497;28;20202;-75
2024/04/08 03:25:08;;;;;;;2.25;2.08;;;16.10;99.90;;;;;;4975418;28;20231;-76
2024/04/08 03:27:34;;;;;;;1.90;1.80;;;16.00;99.90;;;;;;4975418;28;20340;-75
2024/04/08 03:30:01;;;;;;;2.20;2.10;;;16.00;99.90;;;;;;4975328;28;20289;-76
2024/04/08 03:32:27;;;;;;;3.97;1.83;;;15.90;99.90;;;;;;4975363;28;20206;-75
2024/04/08 03:34:54;;;;;;;2.50;2.30;;;16.00;99.90;;;;;;4975376;28;20233;-75
2024/04/08 03:37:25;;;;;;;1.95;1.85;;;15.90;99.90;;;;;;4975257;28;20289;-75
2024/04/08 03:39:52;;;;;;;3.28;2.28;;;15.90;99.90;;;;;;4975215;28;20190;-76
2024/04/08 03:42:22;;;;;;;2.60;2.40;;;15.90;99.90;;;;;;4975094;28;20242;-75
2024/04/08 03:44:49;;;;;;;2.55;2.08;;;15.80;99.90;;;;;;4974895;28;20236;-75
2024/04/08 03:47:16;;;;;;;2.00;1.90;;;15.80;99.90;;;;;;4975054;28;20553;-74
2024/04/08 03:49:43;;;;;;;2.55;2.45;;;15.80;99.90;;;;;;4974911;28;20710;-76
2024/04/08 03:52:10;;;;;;;3.42;2.20;;;15.80;99.90;;;;;;4974926;28;20209;-75
2024/04/08 03:54:37;;;;;;;2.40;2.30;;;15.80;99.90;;;;;;4974912;28;20297;-75
2024/04/08 03:57:03;;;;;;;4.40;2.38;;;15.70;99.90;;;;;;4974706;28;20293;-76
2024/04/08 03:59:31;;;;;;;2.75;2.55;;;15.70;99.90;;;;;;4974838;28;20205;-75
2024/04/08 04:01:57;;;;;;;2.60;2.40;;;15.70;99.90;;;;;;4974638;28;20289;-75
2024/04/08 04:04:25;;;;;;;2.22;2.13;;;15.60;99.90;;;;;;4974732;28;20305;-76
2024/04/08 04:06:51;;;;;;;3.72;2.45;;;15.60;99.90;;;;;;4974702;28;20254;-75
2024/04/08 04:09:18;;;;;;;3.08;1.95;;;15.60;99.90;;;;;;4974665;28;20202;-75
2024/04/08 04:11:44;;;;;;;2.22;2.03;;;15.60;99.90;;;;;;4974500;28;20273;-74
2024/04/08 04:14:11;;;;;;;2.30;2.00;;;15.60;99.90;;;;;;4974876;28;20318;-76
2024/04/08 04:16:38;;;;;;;1.90;1.80;;;15.50;99.90;;;;;;4974596;28;20198;-75
2024/04/08 04:19:05;;;;;;;2.40;2.17;;;15.60;99.90;;;;;;4974522;28;20202;-75
2024/04/08 04:21:32;;;;;;;2.85;2.05;;;15.60;99.90;;;;;;4973601;28;20289;-74
2024/04/08 04:23:59;;;;;;;4.30;2.10;;;15.50;99.90;;;;;;4974484;28;20202;-75
2024/04/08 04:26:25;;;;;;;2.67;2.05;;;15.50;99.90;;;;;;4974301;28;20236;-73
2024/04/08 04:28:52;;;;;;;5.45;2.33;;;15.50;99.90;;;;;;4974152;28;20600;-74
2024/04/08 04:31:18;;;;;;;3.25;1.98;;;15.50;99.90;;;;;;4974169;28;20312;-75
2024/04/08 04:33:46;;;;;;;2.20;2.00;;;15.40;99.90;;;;;;4974235;28;20637;-76
2024/04/08 04:36:12;;;;;;;2.33;2.22;;;15.40;99.90;;;;;;4974169;28;20276;-75
2024/04/08 04:38:39;;;;;;;2.63;2.42;;;15.40;99.90;;;;;;4974100;28;20230;-74
2024/04/08 04:41:06;;;;;;;2.50;2.40;;;15.40;99.90;;;;;;4974047;28;20677;-75
2024/04/08 04:43:33;;;;;;;2.88;2.58;;;15.30;99.90;;;;;;4973962;28;20721;-75
2024/04/08 04:45:59;;;;;;;2.13;2.03;;;15.30;99.90;;;;;;4973653;28;20324;-76
2024/04/08 04:48:27;;;;;;;3.45;2.40;;;15.30;99.90;;;;;;4973816;28;20666;-74
2024/04/08 04:50:54;;;;;;;2.42;2.33;;;15.30;99.90;;;;;;4973711;28;20321;-74
2024/04/08 04:53:21;;;;;;;3.28;2.63;;;15.30;99.90;;;;;;4973929;28;20242;-75
2024/04/08 04:55:52;;;;;;;2.35;2.25;;;15.30;99.90;;;;;;4973750;28;20238;-76
2024/04/08 04:58:19;;;;;;;4.80;3.53;;;15.30;99.90;;;;;;4973670;28;20269;-75
2024/04/08 05:00:47;;;;;;;2.80;2.70;;;15.30;99.90;;;;;;4973713;28;20324;-75
2024/04/08 05:03:14;;;;;;;3.00;2.80;;;15.30;99.90;;;;;;4973626;28;20604;-75
2024/04/08 05:05:40;;;;;;;3.15;2.85;;;15.30;99.90;;;;;;4973598;28;20286;-75
2024/04/08 05:08:08;;;;;;;3.13;2.92;;;15.30;99.90;;;;;;4973562;28;20666;-74
2024/04/08 05:10:34;;;;;;;3.65;2.85;;;15.30;99.90;;;;;;4973391;28;20839;-74
2024/04/08 05:13:01;;;;;;;3.15;2.97;;;15.20;99.90;;;;;;4973608;28;20282;-74
2024/04/08 05:15:27;;;;;;;2.60;2.50;;;15.20;99.90;;;;;;4973322;28;20198;-74
2024/04/08 05:17:54;;;;;;;3.20;2.65;;;15.20;99.90;;;;;;4973306;28;20293;-74
2024/04/08 05:20:25;;;;;;;2.72;2.63;;;15.20;99.90;;;;;;4973370;28;20258;-75
2024/04/08 05:22:52;;;;;;;2.95;2.72;;;15.30;99.90;;;;;;4973459;28;20673;-75
2024/04/08 05:25:20;;;;;;;3.75;2.97;;;15.20;99.90;;;;;;4973557;28;20297;-75
2024/04/08 05:27:47;;;;;;;3.10;2.80;;;15.20;99.90;;;;;;4973024;28;20206;-75
2024/04/08 05:30:15;;;;;;;3.15;2.63;;;15.20;99.90;;;;;;4973124;28;20333;-75
2024/04/08 05:32:42;;;;;;;2.42;2.33;;;15.20;99.90;;;;;;4972892;28;20662;-76
2024/04/08 05:35:08;;;;;;;3.10;2.90;;;15.20;99.90;;;;;;4972450;28;20304;-76
2024/04/08 05:37:35;;;;;;;3.42;2.80;;;15.20;99.90;;;;;;4973024;28;20198;-75
2024/04/08 05:40:04;;;;;;;3.45;3.10;;;15.30;99.90;;;;;;4973024;28;20265;-75
2024/04/08 05:42:32;;;;;;;2.67;2.58;;;15.30;99.90;;;;;;4972882;28;20319;-75
2024/04/08 05:44:58;;;;;;;3.28;3.08;;;15.30;99.90;;;;;;4972741;28;20225;-76
2024/04/08 05:47:25;;;;;;;3.17;2.92;;;15.30;99.90;;;;;;4973061;28;20191;-75
2024/04/08 05:49:51;;;;;;;3.08;2.85;;;15.30;99.90;;;;;;4972830;28;20202;-75
2024/04/08 05:52:19;;;;;;;3.00;2.90;;;15.20;99.90;;;;;;4972857;28;20630;-75
2024/04/08 05:54:45;;;;;;;3.63;3.00;;;15.30;99.90;;;;;;4972939;28;20293;-75
2024/04/08 05:57:12;;;;;;;4.10;3.38;;;15.30;99.90;;;;;;4972535;28;20310;-75
2024/04/08 05:59:40;;;;;;;4.03;3.60;;;15.30;99.90;;;;;;4972876;28;20209;-76
2024/04/08 06:02:07;;;;;;;3.65;3.33;;;15.30;99.90;;;;;;4972700;28;20202;-75
2024/04/08 06:04:33;;;;;;;3.97;3.67;;;15.30;99.90;;;;;;4972852;28;20202;-75
2024/04/08 06:07:00;;;;;;;3.22;3.03;;;15.30;99.90;;;;;;4972653;28;20675;-75
2024/04/08 06:09:26;;;;;;;4.40;4.00;;;15.30;99.90;;;;;;4972540;28;20202;-79
2024/04/08 06:11:53;;;;;;;5.10;4.00;;;15.30;99.90;;;;;;4972382;28;20264;-74
2024/04/08 06:14:19;;;;;;;5.03;4.47;;;15.30;99.90;;;;;;4972543;28;20284;-74
2024/04/08 06:16:47;;;;;;;4.85;4.35;;;15.30;99.90;;;;;;4972580;28;20753;-75
2024/04/08 06:19:13;;;;;;;4.13;3.83;;;15.30;99.90;;;;;;4972313;28;20238;-74
2024/04/08 06:21:40;;;;;;;4.38;3.97;;;15.20;99.90;;;;;;4971693;28;20202;-76
2024/04/08 06:24:06;;;;;;;7.55;3.72;;;15.20;99.90;;;;;;4972385;28;20286;-75
2024/04/08 06:26:33;;;;;;;8.43;3.97;;;15.20;99.90;;;;;;4972409;28;20285;-74
2024/04/08 06:28:59;;;;;;;4.60;4.30;;;15.20;99.90;;;;;;4972135;28;20198;-75
2024/04/08 06:31:26;;;;;;;3.70;3.50;;;15.20;99.90;;;;;;4972214;28;20217;-75
2024/04/08 06:33:53;;;;;;;4.13;3.92;;;15.20;99.90;;;;;;4972344;28;20607;-76
2024/04/08 06:36:22;;;;;;;3.83;3.63;;;15.30;99.90;;;;;;4972071;28;20665;-75
2024/04/08 06:38:48;;;;;;;4.18;3.88;;;15.20;99.90;;;;;;4972223;28;20280;-74
2024/04/08 06:41:16;;;;;;;4.65;4.28;;;15.30;99.90;;;;;;4972259;28;20257;-75
2024/04/08 06:43:42;;;;;;;6.80;4.20;;;15.30;99.90;;;;;;4972210;28;20208;-75
2024/04/08 06:46:09;;;;;;;4.47;4.15;;;15.40;99.90;;;;;;4974572;28;20280;-76
2024/04/08 06:48:36;;;;;;;4.90;4.50;;;15.40;99.90;;;;;;4978300;28;20236;-74
2024/04/08 06:51:05;;;;;;;4.40;4.00;;;15.40;99.90;;;;;;4974969;28;20675;-75
2024/04/08 06:53:30;;;;;;;3.88;3.60;;;15.40;99.90;;;;;;4975814;28;20293;-75
2024/04/08 06:55:57;;;;;;;4.18;3.78;;;15.40;99.90;;;;;;4975981;28;20727;-74
2024/04/08 06:58:24;;;;;;;4.57;4.10;;;15.50;99.90;;;;;;4975500;28;20643;-75
2024/04/08 07:00:51;;;;;;;4.70;4.30;;;15.50;99.90;;;;;;4975657;28;20249;-75
2024/04/08 07:03:17;;;;;;;5.15;4.75;;;15.50;99.90;;;;;;4975838;28;20592;-76
2024/04/08 07:05:46;;;;;;;4.35;4.03;;;15.60;99.90;;;;;;4975843;28;20202;-76
2024/04/08 07:08:16;;;;;;;7.18;4.40;;;15.60;99.90;;;;;;4975746;28;20194;-76
2024/04/08 07:10:46;;;;;;;4.32;3.92;;;15.60;99.90;;;;;;4975350;28;20209;-76
2024/04/08 07:13:12;;;;;;;4.38;4.07;;;15.70;99.90;;;;;;4975680;28;20183;-76
2024/04/08 07:15:39;;;;;;;4.78;4.40;;;15.70;99.90;;;;;;4975429;28;20217;-76
2024/04/08 07:18:05;;;;;;;4.90;4.47;;;15.80;99.90;;;;;;4975383;28;20229;-76
2024/04/08 07:20:34;;;;;;;4.43;4.13;;;15.80;99.90;;;;;;4975481;28;20209;-76
2024/04/08 07:23:00;;;;;;;4.43;4.13;;;15.80;99.90;;;;;;4974820;28;20662;-76
2024/04/08 07:25:28;;;;;;;4.60;4.20;;;15.80;99.90;;;;;;4974897;28;20571;-76
2024/04/08 07:27:55;;;;;;;5.00;4.70;;;15.90;99.90;;;;;;4973918;28;20278;-76
2024/04/08 07:30:22;;;;;;;4.65;4.03;;;16.00;99.90;;;;;;4975102;28;20205;-76
2024/04/08 07:32:47;;;;;;;7.13;4.13;;;16.00;99.90;;;;;;4974799;28;20229;-76
2024/04/08 07:35:20;;;;;;;5.50;4.78;;;16.00;99.90;;;;;;4975025;28;20241;-76
2024/04/08 07:37:46;;;;;;;4.63;4.32;;;16.00;99.90;;;;;;4974848;28;20226;-77
2024/04/08 07:40:13;;;;;;;4.20;3.95;;;16.10;99.90;;;;;;4974962;28;20224;-77
2024/04/08 07:42:42;;;;;;;4.03;3.78;;;16.20;99.90;;;;;;4974925;28;20281;-75
2024/04/08 07:45:11;;;;;;;9.65;4.53;;;16.10;99.90;;;;;;4974714;28;20273;-77
2024/04/08 07:47:39;;;;;;;4.65;4.45;;;16.20;99.90;;;;;;4973897;28;20677;-77
2024/04/08 07:50:08;;;;;;;5.50;3.92;;;16.20;99.90;;;;;;4974901;28;20206;-76
2024/04/08 07:52:37;;;;;;;5.47;5.10;;;16.20;99.90;;;;;;4974761;28;20206;-77
2024/04/08 07:55:04;;;;;;;5.10;4.20;;;16.20;99.90;;;;;;4974703;28;20209;-76
2024/04/08 07:57:30;;;;;;;4.63;4.10;;;16.30;99.90;;;;;;4973388;28;20289;-76
2024/04/08 07:59:59;;;;;;;4.40;4.10;;;16.30;99.90;;;;;;4974538;28;20284;-76
2024/04/08 08:02:25;;;;;;;4.15;3.80;;;16.40;99.90;;;;;;4974680;28;20686;-76
2024/04/08 08:04:53;;;;;;;3.60;3.30;;;16.40;99.90;;;;;;4974510;28;20198;-76
2024/04/08 08:07:19;;;;;;;3.60;3.30;;;16.50;99.90;;;;;;4974332;28;20233;-78
2024/04/08 08:09:46;;;;;;;5.35;3.35;;;16.60;99.90;;;;;;4974409;28;20203;-76
2024/04/08 08:12:13;;;;;;;3.80;3.50;;;16.60;99.90;;;;;;4974102;28;20280;-76
2024/04/08 08:14:40;;;;;;;3.38;3.17;;;16.60;99.90;;;;;;4974538;28;20238;-76
2024/04/08 08:17:08;;;;;;;3.58;3.40;;;16.70;99.90;;;;;;4974280;28;20712;-76
2024/04/08 08:19:36;;;;;;;5.00;3.60;;;16.80;99.90;;;;;;4974469;28;20205;-77
2024/04/08 08:22:03;;;;;;;3.80;3.50;;;16.80;99.90;;;;;;4974336;28;20613;-76
2024/04/08 08:24:30;;;;;;;3.90;3.70;;;16.80;99.90;;;;;;4974397;28;20217;-77
2024/04/08 08:26:57;;;;;;;4.10;3.30;;;16.90;99.90;;;;;;4974240;28;20230;-76
2024/04/08 08:29:26;;;;;;;3.60;3.30;;;16.90;99.90;;;;;;4973923;28;20241;-76
2024/04/08 08:31:53;;;;;;;4.93;3.42;;;17.00;99.90;;;;;;4974069;28;20233;-78
2024/04/08 08:34:21;;;;;;;3.03;2.90;;;17.00;99.90;;;;;;4973995;28;20198;-77
2024/04/08 08:36:49;;;;;;;3.85;3.55;;;17.00;99.90;;;;;;4974162;28;20198;-77
2024/04/08 08:39:16;;;;;;;3.30;3.10;;;17.20;99.90;;;;;;4974068;28;20206;-76
2024/04/08 08:41:44;;;;;;;3.38;2.78;;;17.30;99.90;;;;;;4973944;28;20198;-80
2024/04/08 08:44:10;;;;;;;3.05;2.85;;;17.20;99.90;;;;;;4973815;28;20225;-77
2024/04/08 08:46:37;;;;;;;2.20;2.10;;;17.30;99.90;;;;;;4973720;28;20706;-76
2024/04/08 08:49:05;;;;;;;2.20;2.03;;;17.30;99.90;;;;;;4973895;28;20198;-78
2024/04/08 08:51:34;;;;;;;2.25;2.05;;;17.40;99.90;;;;;;4973752;28;20226;-77
2024/04/08 08:54:00;;;;;;;1.90;1.70;;;17.50;99.90;;;;;;4973614;28;20202;-76
2024/04/08 08:56:31;;;;;;;4.63;1.92;;;17.60;99.90;;;;;;4973484;28;20202;-77
2024/04/08 08:58:58;;;;;;;1.85;1.75;;;17.80;99.90;;;;;;4973455;28;20663;-77
2024/04/08 09:01:25;;;;;;;2.60;2.05;;;17.80;99.90;;;;;;4973660;28;20226;-80
2024/04/08 09:03:53;;;;;;;2.55;1.75;;;17.90;99.90;;;;;;4973504;28;20289;-76
2024/04/08 09:06:20;;;;;;;2.42;2.15;;;18.10;99.90;;;;;;4973532;28;20205;-77
2024/04/08 09:08:48;;;;;;;2.22;2.10;;;18.10;99.90;;;;;;4973549;28;20202;-79
2024/04/08 09:11:16;;;;;;;3.67;1.88;;;18.20;99.90;;;;;;4973273;28;20826;-77
2024/04/08 09:13:42;;;;;;;2.17;1.98;;;18.30;99.90;;;;;;4973432;28;20206;-77
2024/04/08 09:16:10;;;;;;;1.77;1.70;;;18.30;99.90;;;;;;4972641;28;20295;-77
2024/04/08 09:18:36;;;;;;;1.83;1.73;;;18.40;99.90;;;;;;4973236;28;20194;-77
2024/04/08 09:21:03;;;;;;;2.75;1.90;;;18.50;99.90;;;;;;4973455;28;20249;-79
2024/04/08 09:23:32;;;;;;;3.55;2.47;;;18.60;99.90;;;;;;4973290;28;20225;-77
2024/04/08 09:26:00;;;;;;;4.15;2.67;;;18.70;99.90;;;;;;4973094;28;20249;-77
2024/04/08 09:28:26;;;;;;;3.70;2.50;;;18.70;99.90;;;;;;4972819;28;20786;-77
2024/04/08 09:30:55;;;;;;;4.65;4.28;;;18.80;99.90;;;;;;4973104;28;20237;-78
2024/04/08 09:33:22;;;;;;;3.45;3.25;;;18.90;99.90;;;;;;4973067;28;20202;-77
2024/04/08 09:35:50;;;;;;;3.58;3.28;;;18.90;99.90;;;;;;4973174;28;20206;-76
2024/04/08 09:38:19;;;;;;;2.85;2.65;;;18.90;99.90;;;;;;4972930;28;20604;-77
2024/04/08 09:40:48;;;;;;;3.90;3.13;;;18.90;99.90;;;;;;4972986;28;20257;-77
2024/04/08 09:43:15;;;;;;;3.05;2.95;;;19.00;99.90;;;;;;4972718;28;20622;-77
2024/04/08 09:45:43;;;;;;;3.00;2.88;;;19.10;99.90;;;;;;4972777;28;20222;-77
2024/04/08 09:48:12;;;;;;;3.00;2.80;;;19.10;99.90;;;;;;4972616;28;20206;-77
2024/04/08 09:50:42;;;;;;;3.67;3.47;;;19.20;99.90;;;;;;4972745;28;20292;-78
2024/04/08 09:53:09;;;;;;;3.90;3.53;;;19.30;99.90;;;;;;4972730;28;20230;-77
2024/04/08 09:55:40;;;;;;;3.67;3.45;;;19.20;99.90;;;;;;4972741;28;20237;-77
2024/04/08 09:58:09;;;;;;;3.58;3.20;;;19.30;99.90;;;;;;4972254;28;20194;-77
2024/04/08 10:00:41;;;;;;;3.33;3.08;;;19.30;99.90;;;;;;4972797;28;20202;-78
2024/04/08 10:03:10;;;;;;;7.05;2.80;;;19.40;99.90;;;;;;4971554;28;20190;-77
2024/04/08 10:05:37;;;;;;;2.30;2.13;;;19.50;99.90;;;;;;4972210;28;20244;-78
2024/04/08 10:08:04;;;;;;;2.58;2.40;;;19.60;99.90;;;;;;4972417;28;20198;-77
2024/04/08 10:10:31;;;;;;;2.30;2.20;;;19.70;99.90;;;;;;4972641;28;20405;-77
2024/04/08 10:12:58;;;;;;;2.65;2.45;;;19.80;99.90;;;;;;4996916;28;20290;-79
2024/04/08 10:15:31;;;;;;;2.80;2.42;;;19.80;99.90;;;;;;5011459;28;20197;-77
2024/04/08 10:17:58;;;;;;;2.50;2.30;;;20.00;99.90;;;;;;5009139;28;20271;-77
2024/04/08 10:20:27;;;;;;;2.85;2.65;;;20.00;99.90;;;;;;5010972;28;20204;-80
2024/04/08 10:22:53;;;;;;;3.05;2.20;;;20.00;99.90;;;;;;5011234;28;20200;-76
2024/04/08 10:25:36;;;;;;;2.38;1.92;;;20.00;99.90;;;;;;5011465;28;20271;-76
2024/04/08 10:28:07;;;;;;;2.20;2.10;;;20.00;99.90;;;;;;5011242;28;20777;-77
2024/04/08 10:30:34;;;;;;;2.55;2.45;;;20.10;99.90;;;;;;5011408;28;20205;-77
2024/04/08 10:33:05;;;;;;;2.25;2.15;;;20.10;99.90;;;;;;5011307;28;20292;-76
2024/04/08 10:35:32;;;;;;;2.30;2.20;;;20.20;99.90;;;;;;5010977;28;20192;-76
2024/04/08 10:37:58;;;;;;;2.30;2.20;;;20.20;99.90;;;;;;5011278;28;20267;-78
2024/04/08 10:40:26;;;;;;;4.43;2.55;;;20.20;99.90;;;;;;5011302;28;20263;-77
2024/04/08 10:42:52;;;;;;;3.78;2.30;;;20.30;99.90;;;;;;5011272;28;20292;-76
2024/04/08 10:45:19;;;;;;;2.05;1.95;;;20.40;99.90;;;;;;5011099;28;20221;-78
2024/04/08 10:47:45;;;;;;;2.30;2.10;;;20.50;99.90;;;;;;5011079;28;20786;-77
2024/04/08 10:50:14;;;;;;;2.67;2.47;;;20.60;99.90;;;;;;5011163;28;20201;-76
2024/04/08 10:52:41;;;;;;;2.30;2.17;;;20.60;99.90;;;;;;5010959;28;20275;-77
2024/04/08 10:55:09;;;;;;;2.35;2.17;;;20.70;99.90;;;;;;5011183;28;20251;-77
2024/04/08 10:57:35;;;;;;;2.30;2.20;;;20.70;99.90;;;;;;5010678;28;20566;-77
2024/04/08 11:00:03;;;;;;;2.78;2.10;;;20.70;99.90;;;;;;5011105;28;20284;-76
2024/04/08 11:02:32;;;;;;;2.60;2.40;;;20.70;99.90;;;;;;5011141;28;20680;-76
2024/04/08 11:05:01;;;;;;;2.78;2.13;;;20.60;99.90;;;;;;5011038;28;20251;-76
2024/04/08 11:07:35;;;;;;;2.38;2.15;;;20.60;99.90;;;;;;5010997;28;20288;-77
2024/04/08 11:10:04;;;;;;;2.13;2.03;;;20.60;99.90;;;;;;5011090;28;20596;-76
2024/04/08 11:12:30;;;;;;;2.85;2.58;;;20.60;99.90;;;;;;5010889;28;20596;-74
2024/04/08 11:15:00;;;;;;;2.55;2.35;;;20.60;99.90;;;;;;5011116;28;20539;-78
2024/04/08 11:17:27;;;;;;;2.97;2.25;;;20.60;99.90;;;;;;5010966;28;20239;-78
2024/04/08 11:19:58;;;;;;;2.42;2.30;;;20.60;99.90;;;;;;5008693;28;20196;-77
2024/04/08 11:22:25;;;;;;;3.03;2.67;;;20.60;99.90;;;;;;5010676;28;20209;-77
2024/04/08 11:24:54;;;;;;;4.40;3.03;;;20.60;99.90;;;;;;5010668;28;20292;-78
2024/04/08 11:27:21;;;;;;;2.88;2.63;;;20.60;99.90;;;;;;5010507;28;20201;-77
2024/04/08 11:29:48;;;;;;;3.17;2.97;;;20.80;99.90;;;;;;5010696;28;20201;-78
2024/04/08 11:32:14;;;;;;;2.92;2.78;;;20.90;99.90;;;;;;5013347;28;20312;-78
2024/04/08 11:34:42;;;;;;;3.22;2.90;;;20.90;99.90;;;;;;5014062;28;20778;-78
2024/04/08 11:37:09;;;;;;;6.32;3.40;;;21.00;99.90;;;;;;5014183;28;20213;-78
2024/04/08 11:39:37;;;;;;;3.75;3.55;;;21.10;99.90;;;;;;5014056;28;20276;-80
2024/04/08 11:42:04;;;;;;;3.70;3.28;;;21.20;99.90;;;;;;5014014;28;20299;-79
2024/04/08 11:44:32;;;;;;;3.50;3.30;;;21.20;99.90;;;;;;5013559;28;20196;-80
2024/04/08 11:46:58;;;;;;;4.38;4.07;;;21.20;99.90;;;;;;5013715;28;20312;-79
2024/04/08 11:49:26;;;;;;;3.90;3.03;;;21.20;99.90;;;;;;5013741;28;20307;-79
2024/04/08 11:51:52;;;;;;;3.70;3.50;;;21.20;99.90;;;;;;5013859;28;20256;-79
2024/04/08 11:54:19;;;;;;;3.67;3.47;;;21.10;99.90;;;;;;5013870;28;20201;-79
2024/04/08 11:56:45;;;;;;;2.88;2.67;;;21.20;99.90;;;;;;5012202;28;20203;-78
2024/04/08 11:59:13;;;;;;;3.42;3.13;;;21.20;99.90;;;;;;5013328;28;20201;-77
2024/04/08 12:01:42;;;;;;;3.05;2.90;;;21.20;99.90;;;;;;5013667;28;20200;-78
2024/04/08 12:04:09;;;;;;;4.05;3.58;;;21.20;99.90;;;;;;5013737;28;20234;-81
2024/04/08 12:06:35;;;;;;;4.97;3.53;;;21.30;99.90;;;;;;5013790;28;20247;-78
2024/04/08 12:09:03;;;;;;;5.93;3.30;;;21.30;99.90;;;;;;5013921;28;20716;-78
2024/04/08 12:11:29;;;;;;;5.25;3.67;;;21.30;99.90;;;;;;5013389;28;20217;-81
2024/04/08 12:13:56;;;;;;;4.07;3.78;;;21.30;99.90;;;;;;5013700;28;20201;-79
2024/04/08 12:16:23;;;;;;;3.92;3.63;;;21.40;99.90;;;;;;5013507;28;20296;-79
2024/04/08 12:18:50;;;;;;;6.03;4.20;;;21.40;99.90;;;;;;5013388;28;20205;-79
2024/04/08 12:21:17;;;;;;;4.25;3.88;;;21.40;99.90;;;;;;5013207;28;20205;-75
2024/04/08 12:23:44;;;;;;;5.03;4.72;;;21.40;99.90;;;;;;5013412;28;20189;-78
2024/04/08 12:26:12;;;;;;;4.10;3.80;;;21.40;99.90;;;;;;5013392;28;20312;-79
2024/04/08 12:28:38;;;;;;;4.00;3.80;;;21.40;99.90;;;;;;5059496;28;20198;-78
2024/04/08 12:31:04;;;;;;;5.32;4.00;;;21.30;99.90;;;;;;5075335;28;20198;-79
2024/04/08 12:33:33;;;;;;;4.45;4.15;;;21.20;99.90;;;;;;5075118;28;20287;-79
2024/04/08 12:35:59;;;;;;;4.47;4.13;;;21.20;99.90;;;;;;5074690;28;20199;-77
2024/04/08 12:38:26;;;;;;;4.80;4.43;;;21.30;99.90;;;;;;5074493;28;20694;-81
2024/04/08 12:40:52;;;;;;;6.20;5.90;;;21.20;99.90;;;;;;5073777;28;20191;-79
2024/04/08 12:43:19;;;;;;;6.22;5.68;;;21.20;99.90;;;;;;5074064;28;20245;-79
2024/04/08 12:45:45;;;;;;;6.45;5.72;;;21.30;99.90;;;;;;5074305;28;20265;-76
2024/04/08 12:48:12;;;;;;;5.90;5.50;;;21.20;99.90;;;;;;5074613;28;20203;-79
2024/04/08 12:50:41;;;;;;;5.82;5.50;;;21.30;99.90;;;;;;5074086;28;20277;-79
2024/04/08 12:53:08;;;;;;;6.07;5.68;;;21.30;99.90;;;;;;5074556;28;20272;-79
2024/04/08 12:55:38;;;;;;;5.65;5.25;;;21.30;99.90;;;;;;5074230;28;20252;-78
2024/04/08 12:58:06;;;;;;;6.07;5.68;;;21.40;99.90;;;;;;5074733;28;20256;-80
2024/04/08 13:00:32;;;;;;;5.72;5.43;;;21.40;99.90;;;;;;5074379;28;20237;-79
2024/04/08 13:02:59;;;;;;;5.95;5.45;;;21.40;99.90;;;;;;5074383;28;20234;-79
2024/04/08 13:05:25;;;;;;;4.65;4.43;;;21.30;99.90;;;;;;5074637;28;20286;-78
2024/04/08 13:07:54;;;;;;;4.93;4.53;;;21.30;99.90;;;;;;5074274;28;20710;-78
2024/04/08 13:10:20;;;;;;;5.97;5.47;;;21.30;99.90;;;;;;5074163;28;20198;-78
2024/04/08 13:12:47;;;;;;;5.30;4.93;;;21.30;99.90;;;;;;5074523;28;20309;-78
2024/04/08 13:15:17;;;;;;;5.07;4.78;;;21.30;99.90;;;;;;5072256;28;20195;-76
2024/04/08 13:17:44;;;;;;;4.47;4.20;;;21.10;99.90;;;;;;5073907;28;20187;-77
2024/04/08 13:20:11;;;;;;;4.28;4.03;;;21.10;99.90;;;;;;5074172;28;20195;-80
2024/04/08 13:22:40;;;;;;;5.03;4.70;;;21.10;99.90;;;;;;5073743;28;20724;-77
2024/04/08 13:25:08;;;;;;;5.40;5.00;;;21.00;99.90;;;;;;5074386;28;20206;-78
2024/04/08 13:27:35;;;;;;;4.97;4.32;;;21.00;99.90;;;;;;5073627;28;20206;-77
2024/04/08 13:30:01;;;;;;;5.63;4.45;;;20.90;99.90;;;;;;5073666;28;20241;-77
2024/04/08 13:32:28;;;;;;;5.88;5.13;;;21.00;99.90;;;;;;5073665;28;20215;-79
2024/04/08 13:34:55;;;;;;;4.43;4.00;;;21.00;99.90;;;;;;5074163;28;20198;-76
2024/04/08 13:37:22;;;;;;;4.57;4.38;;;21.00;99.90;;;;;;5073626;28;20201;-78
2024/04/08 13:39:48;;;;;;;3.97;3.78;;;21.10;99.90;;;;;;5073753;28;20543;-78
2024/04/08 13:42:17;;;;;;;3.78;3.47;;;21.10;99.90;;;;;;5071473;28;20237;-77
2024/04/08 13:44:46;;;;;;;4.00;3.80;;;21.20;99.90;;;;;;5073853;28;20626;-77
2024/04/08 13:47:15;;;;;;;6.85;3.97;;;21.20;99.90;;;;;;5073139;28;20233;-77
2024/04/08 13:49:41;;;;;;;3.92;3.75;;;21.30;99.90;;;;;;5073923;28;20194;-77
2024/04/08 13:52:10;;;;;;;4.40;4.10;;;21.30;99.90;;;;;;5073637;28;20305;-77
2024/04/08 13:54:36;;;;;;;4.68;3.60;;;21.40;99.90;;;;;;5072169;28;20252;-78
2024/04/08 13:57:03;;;;;;;3.90;3.55;;;21.50;99.90;;;;;;5073684;28;20272;-76
2024/04/08 13:59:34;;;;;;;3.95;3.75;;;21.50;99.90;;;;;;5073029;28;20195;-81
2024/04/08 14:02:03;;;;;;;4.30;3.42;;;21.50;99.90;;;;;;5073315;28;20704;-75
2024/04/08 14:04:33;;;;;;;4.45;4.05;;;21.40;99.90;;;;;;5073700;28;20194;-77
2024/04/08 14:07:01;;;;;;;4.00;3.70;;;21.40;99.90;;;;;;5073644;28;20232;-79
2024/04/08 14:09:27;;;;;;;3.05;2.95;;;21.50;99.90;;;;;;5073759;28;20545;-77
2024/04/08 14:11:56;;;;;;;3.33;3.13;;;21.50;99.90;;;;;;5073435;28;20261;-76
2024/04/08 14:14:23;;;;;;;3.35;3.10;;;21.50;99.90;;;;;;5071567;28;20199;-78
2024/04/08 14:16:51;;;;;;;3.45;3.25;;;21.50;99.90;;;;;;5073063;28;20281;-77
2024/04/08 14:19:21;;;;;;;3.75;3.30;;;21.60;99.90;;;;;;5072718;28;20674;-76
2024/04/08 14:21:48;;;;;;;3.03;2.92;;;21.60;99.90;;;;;;5073015;28;20199;-77
2024/04/08 14:24:14;;;;;;;3.35;3.15;;;21.70;99.90;;;;;;5072970;28;20646;-77
2024/04/08 14:26:41;;;;;;;4.43;3.63;;;21.70;99.90;;;;;;5072786;28;20199;-77
2024/04/08 14:29:07;;;;;;;3.50;3.30;;;21.70;99.90;;;;;;5072520;28;20210;-75